sensor_id;sensor_type;location;lat;lon;timestamp;P1;durP1;ratioP1;P2;durP2;ratioP2
46090;SDS011;31826;53.572;10.170;2023-08-21T00:00:34;7.27;;;2.70;;
46090;SDS011;31826;53.572;10.170;2023-08-21T00:02:59;4.15;;;1.92;;
46090;SDS011;31826;53.572;10.170;2023-08-21T00:05:25;7.82;;;2.20;;
46090;SDS011;31826;53.572;10.170;2023-08-21T00:07:51;5.85;;;2.10;;
46090;SDS011;31826;53.572;10.170;2023-08-21T00:10:16;5.60;;;2.30;;
46090;SDS011;31826;53.572;10.170;2023-08-21T00:12:42;5.87;;;2.03;;
46090;SDS011;31826;53.572;10.170;2023-08-21T00:15:08;7.05;;;1.98;;
46090;SDS011;31826;53.572;10.170;2023-08-21T00:17:35;6.38;;;2.05;;
46090;SDS011;31826;53.572;10.170;2023-08-21T00:20:00;5.18;;;2.28;;
46090;SDS011;31826;53.572;10.170;2023-08-21T00:22:27;5.72;;;2.30;;
46090;SDS011;31826;53.572;10.170;2023-08-21T00:24:53;6.43;;;2.40;;
46090;SDS011;31826;53.572;10.170;2023-08-21T00:27:18;6.17;;;2.10;;
46090;SDS011;31826;53.572;10.170;2023-08-21T00:29:44;5.38;;;2.20;;
46090;SDS011;31826;53.572;10.170;2023-08-21T00:32:10;7.95;;;2.40;;
46090;SDS011;31826;53.572;10.170;2023-08-21T00:34:37;5.40;;;2.00;;
46090;SDS011;31826;53.572;10.170;2023-08-21T00:37:03;6.93;;;2.78;;
46090;SDS011;31826;53.572;10.170;2023-08-21T00:39:29;5.28;;;1.90;;
46090;SDS011;31826;53.572;10.170;2023-08-21T00:41:55;5.50;;;2.20;;
46090;SDS011;31826;53.572;10.170;2023-08-21T00:44:20;4.55;;;2.00;;
46090;SDS011;31826;53.572;10.170;2023-08-21T00:46:46;5.55;;;2.05;;
46090;SDS011;31826;53.572;10.170;2023-08-21T00:49:12;5.03;;;2.17;;
46090;SDS011;31826;53.572;10.170;2023-08-21T00:51:38;9.00;;;2.55;;
46090;SDS011;31826;53.572;10.170;2023-08-21T00:54:04;7.90;;;2.30;;
46090;SDS011;31826;53.572;10.170;2023-08-21T00:56:30;5.20;;;1.90;;
46090;SDS011;31826;53.572;10.170;2023-08-21T00:58:56;7.87;;;2.20;;
46090;SDS011;31826;53.572;10.170;2023-08-21T01:01:23;5.60;;;2.25;;
46090;SDS011;31826;53.572;10.170;2023-08-21T01:03:52;5.55;;;1.85;;
46090;SDS011;31826;53.572;10.170;2023-08-21T01:06:18;6.05;;;2.17;;
46090;SDS011;31826;53.572;10.170;2023-08-21T01:15:17;4.38;;;2.03;;
46090;SDS011;31826;53.572;10.170;2023-08-21T01:17:38;7.50;;;2.70;;
46090;SDS011;31826;53.572;10.170;2023-08-21T01:20:05;9.30;;;2.28;;
46090;SDS011;31826;53.572;10.170;2023-08-21T01:22:36;4.38;;;2.10;;
46090;SDS011;31826;53.572;10.170;2023-08-21T01:25:06;4.25;;;1.80;;
46090;SDS011;31826;53.572;10.170;2023-08-21T01:27:33;5.05;;;1.92;;
46090;SDS011;31826;53.572;10.170;2023-08-21T01:29:59;4.07;;;1.90;;
46090;SDS011;31826;53.572;10.170;2023-08-21T01:32:30;5.57;;;2.10;;
46090;SDS011;31826;53.572;10.170;2023-08-21T01:35:10;4.88;;;2.00;;
46090;SDS011;31826;53.572;10.170;2023-08-21T01:37:37;4.30;;;1.80;;
46090;SDS011;31826;53.572;10.170;2023-08-21T01:40:03;6.60;;;2.30;;
46090;SDS011;31826;53.572;10.170;2023-08-21T01:42:30;6.72;;;2.13;;
46090;SDS011;31826;53.572;10.170;2023-08-21T01:44:55;7.88;;;2.22;;
46090;SDS011;31826;53.572;10.170;2023-08-21T01:47:21;5.38;;;2.00;;
46090;SDS011;31826;53.572;10.170;2023-08-21T01:49:47;6.53;;;2.10;;
46090;SDS011;31826;53.572;10.170;2023-08-21T01:52:12;5.30;;;2.03;;
46090;SDS011;31826;53.572;10.170;2023-08-21T01:54:38;4.90;;;2.10;;
46090;SDS011;31826;53.572;10.170;2023-08-21T01:57:04;6.53;;;2.20;;
46090;SDS011;31826;53.572;10.170;2023-08-21T01:59:30;4.88;;;2.30;;
46090;SDS011;31826;53.572;10.170;2023-08-21T02:01:56;4.68;;;2.10;;
46090;SDS011;31826;53.572;10.170;2023-08-21T02:04:21;3.50;;;2.00;;
46090;SDS011;31826;53.572;10.170;2023-08-21T02:06:47;7.13;;;2.30;;
46090;SDS011;31826;53.572;10.170;2023-08-21T02:09:13;6.28;;;2.30;;
46090;SDS011;31826;53.572;10.170;2023-08-21T02:11:38;5.78;;;2.03;;
46090;SDS011;31826;53.572;10.170;2023-08-21T02:14:04;5.27;;;2.23;;
46090;SDS011;31826;53.572;10.170;2023-08-21T02:16:30;8.20;;;3.33;;
46090;SDS011;31826;53.572;10.170;2023-08-21T02:18:55;7.07;;;2.60;;
46090;SDS011;31826;53.572;10.170;2023-08-21T02:21:22;7.63;;;2.53;;
46090;SDS011;31826;53.572;10.170;2023-08-21T02:23:48;5.30;;;2.17;;
46090;SDS011;31826;53.572;10.170;2023-08-21T02:26:13;6.00;;;2.57;;
46090;SDS011;31826;53.572;10.170;2023-08-21T02:28:39;7.33;;;2.53;;
46090;SDS011;31826;53.572;10.170;2023-08-21T02:31:05;6.53;;;2.80;;
46090;SDS011;31826;53.572;10.170;2023-08-21T02:33:33;5.13;;;2.38;;
46090;SDS011;31826;53.572;10.170;2023-08-21T02:35:59;9.43;;;2.58;;
46090;SDS011;31826;53.572;10.170;2023-08-21T02:38:26;5.70;;;2.40;;
46090;SDS011;31826;53.572;10.170;2023-08-21T02:40:51;6.75;;;2.38;;
46090;SDS011;31826;53.572;10.170;2023-08-21T02:43:17;6.80;;;2.40;;
46090;SDS011;31826;53.572;10.170;2023-08-21T02:45:43;9.65;;;2.60;;
46090;SDS011;31826;53.572;10.170;2023-08-21T02:48:08;7.70;;;2.53;;
46090;SDS011;31826;53.572;10.170;2023-08-21T02:50:34;6.73;;;2.43;;
46090;SDS011;31826;53.572;10.170;2023-08-21T02:53:00;7.13;;;2.60;;
46090;SDS011;31826;53.572;10.170;2023-08-21T02:55:25;5.47;;;2.60;;
46090;SDS011;31826;53.572;10.170;2023-08-21T02:57:51;5.72;;;2.13;;
46090;SDS011;31826;53.572;10.170;2023-08-21T03:00:17;7.30;;;2.57;;
46090;SDS011;31826;53.572;10.170;2023-08-21T03:02:42;7.20;;;2.90;;
46090;SDS011;31826;53.572;10.170;2023-08-21T03:05:09;8.02;;;2.45;;
46090;SDS011;31826;53.572;10.170;2023-08-21T03:07:35;6.07;;;2.40;;
46090;SDS011;31826;53.572;10.170;2023-08-21T03:10:01;6.35;;;2.53;;
46090;SDS011;31826;53.572;10.170;2023-08-21T03:12:27;6.72;;;2.40;;
46090;SDS011;31826;53.572;10.170;2023-08-21T03:14:53;4.90;;;2.40;;
46090;SDS011;31826;53.572;10.170;2023-08-21T03:17:19;6.55;;;2.70;;
46090;SDS011;31826;53.572;10.170;2023-08-21T03:19:44;6.03;;;2.75;;
46090;SDS011;31826;53.572;10.170;2023-08-21T03:22:10;6.60;;;2.47;;
46090;SDS011;31826;53.572;10.170;2023-08-21T03:24:36;7.05;;;2.65;;
46090;SDS011;31826;53.572;10.170;2023-08-21T03:27:02;9.50;;;2.85;;
46090;SDS011;31826;53.572;10.170;2023-08-21T03:29:27;5.63;;;2.30;;
46090;SDS011;31826;53.572;10.170;2023-08-21T03:31:53;7.17;;;2.90;;
46090;SDS011;31826;53.572;10.170;2023-08-21T03:34:22;8.05;;;2.92;;
46090;SDS011;31826;53.572;10.170;2023-08-21T03:36:48;6.32;;;3.00;;
46090;SDS011;31826;53.572;10.170;2023-08-21T03:39:13;7.15;;;2.85;;
46090;SDS011;31826;53.572;10.170;2023-08-21T03:41:39;7.13;;;2.60;;
46090;SDS011;31826;53.572;10.170;2023-08-21T03:44:05;7.45;;;2.90;;
46090;SDS011;31826;53.572;10.170;2023-08-21T03:46:30;6.03;;;2.67;;
46090;SDS011;31826;53.572;10.170;2023-08-21T03:48:56;7.00;;;2.93;;
46090;SDS011;31826;53.572;10.170;2023-08-21T03:51:22;6.03;;;2.67;;
46090;SDS011;31826;53.572;10.170;2023-08-21T03:53:48;6.95;;;3.17;;
46090;SDS011;31826;53.572;10.170;2023-08-21T03:56:14;6.72;;;3.33;;
46090;SDS011;31826;53.572;10.170;2023-08-21T03:58:40;6.63;;;2.90;;
46090;SDS011;31826;53.572;10.170;2023-08-21T04:01:06;9.30;;;3.13;;
46090;SDS011;31826;53.572;10.170;2023-08-21T04:03:31;8.90;;;2.88;;
46090;SDS011;31826;53.572;10.170;2023-08-21T04:05:58;6.93;;;3.03;;
46090;SDS011;31826;53.572;10.170;2023-08-21T04:08:24;7.18;;;3.40;;
46090;SDS011;31826;53.572;10.170;2023-08-21T04:10:50;6.60;;;2.80;;
46090;SDS011;31826;53.572;10.170;2023-08-21T04:13:18;7.70;;;3.13;;
46090;SDS011;31826;53.572;10.170;2023-08-21T04:15:44;8.60;;;3.22;;
46090;SDS011;31826;53.572;10.170;2023-08-21T04:18:11;6.50;;;2.70;;
46090;SDS011;31826;53.572;10.170;2023-08-21T04:20:36;5.93;;;2.58;;
46090;SDS011;31826;53.572;10.170;2023-08-21T04:23:02;7.22;;;2.50;;
46090;SDS011;31826;53.572;10.170;2023-08-21T04:25:28;7.22;;;2.60;;
46090;SDS011;31826;53.572;10.170;2023-08-21T04:27:54;8.60;;;2.65;;
46090;SDS011;31826;53.572;10.170;2023-08-21T04:30:20;5.93;;;2.50;;
46090;SDS011;31826;53.572;10.170;2023-08-21T04:32:46;8.98;;;2.88;;
46090;SDS011;31826;53.572;10.170;2023-08-21T04:35:12;8.00;;;2.70;;
46090;SDS011;31826;53.572;10.170;2023-08-21T04:37:42;6.10;;;2.63;;
46090;SDS011;31826;53.572;10.170;2023-08-21T04:40:09;6.63;;;2.88;;
46090;SDS011;31826;53.572;10.170;2023-08-21T04:42:36;5.90;;;2.60;;
46090;SDS011;31826;53.572;10.170;2023-08-21T04:45:01;5.97;;;2.50;;
46090;SDS011;31826;53.572;10.170;2023-08-21T04:47:27;7.68;;;2.70;;
46090;SDS011;31826;53.572;10.170;2023-08-21T04:49:53;5.93;;;2.67;;
46090;SDS011;31826;53.572;10.170;2023-08-21T04:52:21;6.78;;;2.90;;
46090;SDS011;31826;53.572;10.170;2023-08-21T04:54:48;11.90;;;3.30;;
46090;SDS011;31826;53.572;10.170;2023-08-21T04:57:14;6.90;;;2.63;;
46090;SDS011;31826;53.572;10.170;2023-08-21T04:59:40;7.43;;;2.80;;
46090;SDS011;31826;53.572;10.170;2023-08-21T05:02:06;4.87;;;2.50;;
46090;SDS011;31826;53.572;10.170;2023-08-21T05:04:32;8.53;;;2.77;;
46090;SDS011;31826;53.572;10.170;2023-08-21T05:06:59;9.50;;;3.15;;
46090;SDS011;31826;53.572;10.170;2023-08-21T05:09:25;9.10;;;2.80;;
46090;SDS011;31826;53.572;10.170;2023-08-21T05:11:51;8.03;;;2.93;;
46090;SDS011;31826;53.572;10.170;2023-08-21T05:14:16;7.53;;;3.00;;
46090;SDS011;31826;53.572;10.170;2023-08-21T05:16:44;7.70;;;3.40;;
46090;SDS011;31826;53.572;10.170;2023-08-21T05:19:10;11.48;;;3.65;;
46090;SDS011;31826;53.572;10.170;2023-08-21T05:21:36;9.63;;;3.63;;
46090;SDS011;31826;53.572;10.170;2023-08-21T05:24:01;8.20;;;3.28;;
46090;SDS011;31826;53.572;10.170;2023-08-21T05:26:27;9.98;;;3.47;;
46090;SDS011;31826;53.572;10.170;2023-08-21T05:28:53;9.53;;;3.03;;
46090;SDS011;31826;53.572;10.170;2023-08-21T05:31:18;8.27;;;3.53;;
46090;SDS011;31826;53.572;10.170;2023-08-21T05:33:44;12.50;;;3.65;;
46090;SDS011;31826;53.572;10.170;2023-08-21T05:36:10;7.03;;;3.03;;
46090;SDS011;31826;53.572;10.170;2023-08-21T05:38:36;10.20;;;3.10;;
46090;SDS011;31826;53.572;10.170;2023-08-21T05:41:02;10.35;;;3.17;;
46090;SDS011;31826;53.572;10.170;2023-08-21T05:43:27;11.97;;;3.60;;
46090;SDS011;31826;53.572;10.170;2023-08-21T05:45:54;9.00;;;3.42;;
46090;SDS011;31826;53.572;10.170;2023-08-21T05:48:19;7.80;;;2.95;;
46090;SDS011;31826;53.572;10.170;2023-08-21T05:50:50;10.67;;;3.50;;
46090;SDS011;31826;53.572;10.170;2023-08-21T05:53:16;10.15;;;3.25;;
46090;SDS011;31826;53.572;10.170;2023-08-21T05:55:41;9.83;;;3.00;;
46090;SDS011;31826;53.572;10.170;2023-08-21T05:58:07;8.32;;;3.13;;
46090;SDS011;31826;53.572;10.170;2023-08-21T06:00:33;10.00;;;3.33;;
46090;SDS011;31826;53.572;10.170;2023-08-21T06:02:59;12.57;;;3.55;;
46090;SDS011;31826;53.572;10.170;2023-08-21T06:05:25;7.20;;;3.17;;
46090;SDS011;31826;53.572;10.170;2023-08-21T06:07:51;12.50;;;2.80;;
46090;SDS011;31826;53.572;10.170;2023-08-21T06:10:17;10.32;;;3.50;;
46090;SDS011;31826;53.572;10.170;2023-08-21T06:12:43;8.55;;;2.85;;
46090;SDS011;31826;53.572;10.170;2023-08-21T06:15:09;10.18;;;2.95;;
46090;SDS011;31826;53.572;10.170;2023-08-21T06:17:35;10.38;;;2.60;;
46090;SDS011;31826;53.572;10.170;2023-08-21T06:20:02;7.10;;;2.13;;
46090;SDS011;31826;53.572;10.170;2023-08-21T06:22:34;8.07;;;2.28;;
46090;SDS011;31826;53.572;10.170;2023-08-21T06:25:00;7.90;;;2.23;;
46090;SDS011;31826;53.572;10.170;2023-08-21T06:27:25;6.60;;;2.30;;
46090;SDS011;31826;53.572;10.170;2023-08-21T06:29:51;6.30;;;1.85;;
46090;SDS011;31826;53.572;10.170;2023-08-21T06:32:17;8.98;;;2.20;;
46090;SDS011;31826;53.572;10.170;2023-08-21T06:34:43;7.50;;;2.03;;
46090;SDS011;31826;53.572;10.170;2023-08-21T06:37:09;8.98;;;1.90;;
46090;SDS011;31826;53.572;10.170;2023-08-21T06:39:34;7.97;;;2.05;;
46090;SDS011;31826;53.572;10.170;2023-08-21T06:42:00;7.27;;;1.90;;
46090;SDS011;31826;53.572;10.170;2023-08-21T06:44:26;13.60;;;2.80;;
46090;SDS011;31826;53.572;10.170;2023-08-21T06:46:52;5.77;;;1.80;;
46090;SDS011;31826;53.572;10.170;2023-08-21T06:49:18;9.17;;;2.03;;
46090;SDS011;31826;53.572;10.170;2023-08-21T06:51:43;7.90;;;1.80;;
46090;SDS011;31826;53.572;10.170;2023-08-21T06:54:09;5.50;;;1.83;;
46090;SDS011;31826;53.572;10.170;2023-08-21T06:56:35;6.65;;;1.88;;
46090;SDS011;31826;53.572;10.170;2023-08-21T06:59:03;7.13;;;2.05;;
46090;SDS011;31826;53.572;10.170;2023-08-21T07:01:28;5.97;;;1.40;;
46090;SDS011;31826;53.572;10.170;2023-08-21T07:03:54;10.27;;;1.90;;
46090;SDS011;31826;53.572;10.170;2023-08-21T07:06:20;6.72;;;1.67;;
46090;SDS011;31826;53.572;10.170;2023-08-21T07:08:46;5.43;;;1.52;;
46090;SDS011;31826;53.572;10.170;2023-08-21T07:11:11;3.85;;;1.42;;
46090;SDS011;31826;53.572;10.170;2023-08-21T07:13:37;5.63;;;1.30;;
46090;SDS011;31826;53.572;10.170;2023-08-21T07:16:04;6.03;;;1.30;;
46090;SDS011;31826;53.572;10.170;2023-08-21T07:18:32;5.50;;;1.40;;
46090;SDS011;31826;53.572;10.170;2023-08-21T07:20:58;6.00;;;1.40;;
46090;SDS011;31826;53.572;10.170;2023-08-21T07:23:24;6.13;;;1.52;;
46090;SDS011;31826;53.572;10.170;2023-08-21T07:25:50;8.68;;;1.40;;
46090;SDS011;31826;53.572;10.170;2023-08-21T07:28:16;4.55;;;1.38;;
46090;SDS011;31826;53.572;10.170;2023-08-21T07:30:42;5.17;;;1.27;;
46090;SDS011;31826;53.572;10.170;2023-08-21T07:33:08;5.20;;;1.30;;
46090;SDS011;31826;53.572;10.170;2023-08-21T07:35:34;6.03;;;1.40;;
46090;SDS011;31826;53.572;10.170;2023-08-21T07:38:01;6.13;;;1.77;;
46090;SDS011;31826;53.572;10.170;2023-08-21T07:40:26;6.43;;;1.77;;
46090;SDS011;31826;53.572;10.170;2023-08-21T07:42:52;6.30;;;1.30;;
46090;SDS011;31826;53.572;10.170;2023-08-21T07:45:18;5.95;;;1.30;;
46090;SDS011;31826;53.572;10.170;2023-08-21T07:47:44;7.88;;;1.80;;
46090;SDS011;31826;53.572;10.170;2023-08-21T07:50:09;10.43;;;2.33;;
46090;SDS011;31826;53.572;10.170;2023-08-21T07:52:35;4.10;;;1.30;;
46090;SDS011;31826;53.572;10.170;2023-08-21T07:55:01;4.27;;;1.87;;
46090;SDS011;31826;53.572;10.170;2023-08-21T07:57:28;5.57;;;1.42;;
46090;SDS011;31826;53.572;10.170;2023-08-21T07:59:54;5.10;;;1.40;;
46090;SDS011;31826;53.572;10.170;2023-08-21T08:02:20;5.22;;;1.38;;
46090;SDS011;31826;53.572;10.170;2023-08-21T08:04:46;5.15;;;1.15;;
46090;SDS011;31826;53.572;10.170;2023-08-21T08:07:12;5.00;;;1.33;;
46090;SDS011;31826;53.572;10.170;2023-08-21T08:09:38;4.68;;;1.20;;
46090;SDS011;31826;53.572;10.170;2023-08-21T08:12:04;3.88;;;1.42;;
46090;SDS011;31826;53.572;10.170;2023-08-21T08:14:30;6.00;;;1.27;;
46090;SDS011;31826;53.572;10.170;2023-08-21T08:16:56;5.82;;;1.38;;
46090;SDS011;31826;53.572;10.170;2023-08-21T08:19:22;4.63;;;1.30;;
46090;SDS011;31826;53.572;10.170;2023-08-21T08:21:48;5.40;;;1.40;;
46090;SDS011;31826;53.572;10.170;2023-08-21T08:24:14;9.27;;;1.40;;
46090;SDS011;31826;53.572;10.170;2023-08-21T08:26:40;5.55;;;1.10;;
46090;SDS011;31826;53.572;10.170;2023-08-21T08:29:07;4.03;;;1.20;;
46090;SDS011;31826;53.572;10.170;2023-08-21T08:31:33;3.20;;;1.20;;
46090;SDS011;31826;53.572;10.170;2023-08-21T08:33:59;4.72;;;1.20;;
46090;SDS011;31826;53.572;10.170;2023-08-21T08:36:25;4.60;;;1.03;;
46090;SDS011;31826;53.572;10.170;2023-08-21T08:38:51;3.93;;;1.00;;
46090;SDS011;31826;53.572;10.170;2023-08-21T08:41:29;3.83;;;1.35;;
46090;SDS011;31826;53.572;10.170;2023-08-21T08:43:59;5.28;;;2.10;;
46090;SDS011;31826;53.572;10.170;2023-08-21T08:46:27;6.40;;;1.25;;
46090;SDS011;31826;53.572;10.170;2023-08-21T08:48:55;5.65;;;1.27;;
46090;SDS011;31826;53.572;10.170;2023-08-21T08:51:25;5.30;;;1.27;;
46090;SDS011;31826;53.572;10.170;2023-08-21T08:53:53;4.95;;;1.17;;
46090;SDS011;31826;53.572;10.170;2023-08-21T08:56:20;3.60;;;1.00;;
46090;SDS011;31826;53.572;10.170;2023-08-21T08:58:46;5.07;;;1.40;;
46090;SDS011;31826;53.572;10.170;2023-08-21T09:01:12;10.30;;;2.00;;
46090;SDS011;31826;53.572;10.170;2023-08-21T09:03:38;3.42;;;1.00;;
46090;SDS011;31826;53.572;10.170;2023-08-21T09:06:03;3.38;;;0.70;;
46090;SDS011;31826;53.572;10.170;2023-08-21T09:08:29;2.77;;;0.80;;
46090;SDS011;31826;53.572;10.170;2023-08-21T09:10:55;4.90;;;1.07;;
46090;SDS011;31826;53.572;10.170;2023-08-21T09:13:25;3.90;;;0.95;;
46090;SDS011;31826;53.572;10.170;2023-08-21T09:15:53;3.88;;;0.90;;
46090;SDS011;31826;53.572;10.170;2023-08-21T09:18:20;2.13;;;1.00;;
46090;SDS011;31826;53.572;10.170;2023-08-21T09:20:46;2.27;;;1.10;;
46090;SDS011;31826;53.572;10.170;2023-08-21T09:23:16;4.25;;;0.98;;
46090;SDS011;31826;53.572;10.170;2023-08-21T09:25:44;3.67;;;1.10;;
46090;SDS011;31826;53.572;10.170;2023-08-21T09:28:12;2.80;;;0.80;;
46090;SDS011;31826;53.572;10.170;2023-08-21T09:30:45;2.97;;;1.40;;
46090;SDS011;31826;53.572;10.170;2023-08-21T09:33:19;3.60;;;1.20;;
46090;SDS011;31826;53.572;10.170;2023-08-21T09:35:46;2.58;;;0.70;;
46090;SDS011;31826;53.572;10.170;2023-08-21T09:38:12;2.13;;;0.88;;
46090;SDS011;31826;53.572;10.170;2023-08-21T09:40:42;1.80;;;0.75;;
46090;SDS011;31826;53.572;10.170;2023-08-21T09:43:09;3.20;;;1.00;;
46090;SDS011;31826;53.572;10.170;2023-08-21T09:45:38;1.88;;;0.70;;
46090;SDS011;31826;53.572;10.170;2023-08-21T09:48:04;1.60;;;0.70;;
46090;SDS011;31826;53.572;10.170;2023-08-21T09:50:31;2.80;;;0.85;;
46090;SDS011;31826;53.572;10.170;2023-08-21T09:52:58;3.15;;;1.17;;
46090;SDS011;31826;53.572;10.170;2023-08-21T09:55:24;2.83;;;0.95;;
46090;SDS011;31826;53.572;10.170;2023-08-21T09:57:56;3.45;;;0.80;;
46090;SDS011;31826;53.572;10.170;2023-08-21T10:00:30;3.77;;;0.90;;
46090;SDS011;31826;53.572;10.170;2023-08-21T10:03:01;3.90;;;0.95;;
46090;SDS011;31826;53.572;10.170;2023-08-21T10:05:31;4.63;;;0.80;;
46090;SDS011;31826;53.572;10.170;2023-08-21T10:08:00;3.17;;;0.90;;
46090;SDS011;31826;53.572;10.170;2023-08-21T10:10:37;1.73;;;0.88;;
46090;SDS011;31826;53.572;10.170;2023-08-21T10:13:03;3.90;;;1.20;;
46090;SDS011;31826;53.572;10.170;2023-08-21T10:15:30;4.40;;;0.85;;
46090;SDS011;31826;53.572;10.170;2023-08-21T10:17:58;1.65;;;1.00;;
46090;SDS011;31826;53.572;10.170;2023-08-21T10:20:49;2.97;;;0.90;;
46090;SDS011;31826;53.572;10.170;2023-08-21T10:23:29;4.05;;;1.05;;
46090;SDS011;31826;53.572;10.170;2023-08-21T10:25:58;3.15;;;1.17;;
46090;SDS011;31826;53.572;10.170;2023-08-21T10:28:25;3.10;;;0.90;;
46090;SDS011;31826;53.572;10.170;2023-08-21T10:34:04;5.60;;;1.05;;
46090;SDS011;31826;53.572;10.170;2023-08-21T10:41:58;2.40;;;0.70;;
46090;SDS011;31826;53.572;10.170;2023-08-21T10:47:23;1.87;;;1.03;;
46090;SDS011;31826;53.572;10.170;2023-08-21T10:49:53;3.58;;;0.90;;
46090;SDS011;31826;53.572;10.170;2023-08-21T10:52:20;3.10;;;0.93;;
46090;SDS011;31826;53.572;10.170;2023-08-21T10:54:50;2.38;;;0.80;;
46090;SDS011;31826;53.572;10.170;2023-08-21T10:57:18;3.20;;;0.73;;
46090;SDS011;31826;53.572;10.170;2023-08-21T10:59:53;3.07;;;0.80;;
46090;SDS011;31826;53.572;10.170;2023-08-21T11:02:20;2.43;;;0.80;;
46090;SDS011;31826;53.572;10.170;2023-08-21T11:04:46;2.05;;;0.95;;
46090;SDS011;31826;53.572;10.170;2023-08-21T11:07:11;2.03;;;0.70;;
46090;SDS011;31826;53.572;10.170;2023-08-21T11:09:38;2.13;;;0.85;;
46090;SDS011;31826;53.572;10.170;2023-08-21T11:12:10;3.03;;;0.77;;
46090;SDS011;31826;53.572;10.170;2023-08-21T11:14:38;2.35;;;1.05;;
46090;SDS011;31826;53.572;10.170;2023-08-21T11:17:04;3.70;;;1.00;;
46090;SDS011;31826;53.572;10.170;2023-08-21T11:19:31;3.85;;;1.05;;
46090;SDS011;31826;53.572;10.170;2023-08-21T11:22:00;1.35;;;0.75;;
46090;SDS011;31826;53.572;10.170;2023-08-21T11:27:03;1.88;;;0.88;;
46090;SDS011;31826;53.572;10.170;2023-08-21T11:29:39;3.13;;;0.80;;
46090;SDS011;31826;53.572;10.170;2023-08-21T11:32:15;2.75;;;1.08;;
46090;SDS011;31826;53.572;10.170;2023-08-21T11:34:49;3.78;;;0.85;;
46090;SDS011;31826;53.572;10.170;2023-08-21T11:37:16;4.10;;;1.05;;
46090;SDS011;31826;53.572;10.170;2023-08-21T11:39:53;3.55;;;1.20;;
46090;SDS011;31826;53.572;10.170;2023-08-21T11:42:22;1.60;;;0.80;;
46090;SDS011;31826;53.572;10.170;2023-08-21T11:44:53;2.67;;;1.02;;
46090;SDS011;31826;53.572;10.170;2023-08-21T11:47:20;3.38;;;0.88;;
46090;SDS011;31826;53.572;10.170;2023-08-21T11:49:47;1.48;;;0.82;;
46090;SDS011;31826;53.572;10.170;2023-08-21T11:52:17;2.67;;;0.90;;
46090;SDS011;31826;53.572;10.170;2023-08-21T11:54:49;1.90;;;0.70;;
46090;SDS011;31826;53.572;10.170;2023-08-21T11:57:16;2.60;;;0.90;;
46090;SDS011;31826;53.572;10.170;2023-08-21T11:59:42;2.58;;;1.00;;
46090;SDS011;31826;53.572;10.170;2023-08-21T12:02:14;2.75;;;0.90;;
46090;SDS011;31826;53.572;10.170;2023-08-21T12:04:42;2.80;;;0.77;;
46090;SDS011;31826;53.572;10.170;2023-08-21T12:07:08;2.80;;;1.27;;
46090;SDS011;31826;53.572;10.170;2023-08-21T12:09:34;1.77;;;0.70;;
46090;SDS011;31826;53.572;10.170;2023-08-21T12:11:59;3.37;;;1.00;;
46090;SDS011;31826;53.572;10.170;2023-08-21T12:14:26;2.40;;;0.90;;
46090;SDS011;31826;53.572;10.170;2023-08-21T12:16:53;2.05;;;0.90;;
46090;SDS011;31826;53.572;10.170;2023-08-21T12:19:20;1.98;;;0.73;;
46090;SDS011;31826;53.572;10.170;2023-08-21T12:21:47;1.40;;;0.80;;
46090;SDS011;31826;53.572;10.170;2023-08-21T12:24:12;2.80;;;0.80;;
46090;SDS011;31826;53.572;10.170;2023-08-21T12:26:38;2.03;;;0.73;;
46090;SDS011;31826;53.572;10.170;2023-08-21T12:29:04;1.42;;;0.80;;
46090;SDS011;31826;53.572;10.170;2023-08-21T12:31:29;1.87;;;0.80;;
46090;SDS011;31826;53.572;10.170;2023-08-21T12:33:55;1.75;;;0.80;;
46090;SDS011;31826;53.572;10.170;2023-08-21T12:36:21;2.72;;;1.02;;
46090;SDS011;31826;53.572;10.170;2023-08-21T12:38:47;2.20;;;0.85;;
46090;SDS011;31826;53.572;10.170;2023-08-21T12:41:13;4.93;;;1.10;;
46090;SDS011;31826;53.572;10.170;2023-08-21T12:43:39;2.25;;;0.95;;
46090;SDS011;31826;53.572;10.170;2023-08-21T12:46:05;3.17;;;1.00;;
46090;SDS011;31826;53.572;10.170;2023-08-21T12:48:30;10.82;;;2.25;;
46090;SDS011;31826;53.572;10.170;2023-08-21T12:50:56;5.13;;;1.00;;
46090;SDS011;31826;53.572;10.170;2023-08-21T12:53:22;2.53;;;1.20;;
46090;SDS011;31826;53.572;10.170;2023-08-21T12:55:48;2.63;;;0.80;;
46090;SDS011;31826;53.572;10.170;2023-08-21T12:58:14;4.00;;;1.05;;
46090;SDS011;31826;53.572;10.170;2023-08-21T13:00:39;2.78;;;0.95;;
46090;SDS011;31826;53.572;10.170;2023-08-21T13:03:05;2.05;;;1.00;;
46090;SDS011;31826;53.572;10.170;2023-08-21T13:05:31;1.50;;;0.80;;
46090;SDS011;31826;53.572;10.170;2023-08-21T13:07:56;4.88;;;1.05;;
46090;SDS011;31826;53.572;10.170;2023-08-21T13:10:22;3.75;;;1.20;;
46090;SDS011;31826;53.572;10.170;2023-08-21T13:12:48;3.33;;;0.93;;
46090;SDS011;31826;53.572;10.170;2023-08-21T13:15:14;2.90;;;1.00;;
46090;SDS011;31826;53.572;10.170;2023-08-21T13:17:40;4.53;;;1.23;;
46090;SDS011;31826;53.572;10.170;2023-08-21T13:20:07;2.72;;;0.75;;
46090;SDS011;31826;53.572;10.170;2023-08-21T13:22:46;3.03;;;0.85;;
46090;SDS011;31826;53.572;10.170;2023-08-21T13:25:14;2.28;;;1.00;;
46090;SDS011;31826;53.572;10.170;2023-08-21T13:27:47;4.57;;;1.20;;
46090;SDS011;31826;53.572;10.170;2023-08-21T13:30:13;2.47;;;1.02;;
46090;SDS011;31826;53.572;10.170;2023-08-21T13:32:39;2.33;;;1.30;;
46090;SDS011;31826;53.572;10.170;2023-08-21T13:35:05;2.53;;;1.07;;
46090;SDS011;31826;53.572;10.170;2023-08-21T13:37:34;4.97;;;1.10;;
46090;SDS011;31826;53.572;10.170;2023-08-21T13:40:01;2.60;;;1.00;;
46090;SDS011;31826;53.572;10.170;2023-08-21T13:42:36;1.67;;;0.90;;
46090;SDS011;31826;53.572;10.170;2023-08-21T13:45:05;2.78;;;1.00;;
46090;SDS011;31826;53.572;10.170;2023-08-21T13:47:37;2.92;;;1.10;;
46090;SDS011;31826;53.572;10.170;2023-08-21T13:50:04;1.37;;;0.90;;
46090;SDS011;31826;53.572;10.170;2023-08-21T13:52:30;6.28;;;1.13;;
46090;SDS011;31826;53.572;10.170;2023-08-21T13:54:56;2.30;;;0.90;;
46090;SDS011;31826;53.572;10.170;2023-08-21T13:57:22;2.33;;;1.00;;
46090;SDS011;31826;53.572;10.170;2023-08-21T13:59:47;3.80;;;0.90;;
46090;SDS011;31826;53.572;10.170;2023-08-21T14:02:13;2.58;;;1.00;;
46090;SDS011;31826;53.572;10.170;2023-08-21T14:04:38;2.47;;;1.00;;
46090;SDS011;31826;53.572;10.170;2023-08-21T14:07:04;1.25;;;0.90;;
46090;SDS011;31826;53.572;10.170;2023-08-21T14:09:30;2.10;;;0.90;;
46090;SDS011;31826;53.572;10.170;2023-08-21T14:11:55;3.17;;;1.20;;
46090;SDS011;31826;53.572;10.170;2023-08-21T14:14:21;3.07;;;1.27;;
46090;SDS011;31826;53.572;10.170;2023-08-21T14:16:46;2.35;;;0.95;;
46090;SDS011;31826;53.572;10.170;2023-08-21T14:19:12;4.43;;;1.47;;
46090;SDS011;31826;53.572;10.170;2023-08-21T14:21:38;3.05;;;1.02;;
46090;SDS011;31826;53.572;10.170;2023-08-21T14:24:04;3.00;;;0.93;;
46090;SDS011;31826;53.572;10.170;2023-08-21T14:26:30;3.08;;;0.88;;
46090;SDS011;31826;53.572;10.170;2023-08-21T14:28:55;3.03;;;1.10;;
46090;SDS011;31826;53.572;10.170;2023-08-21T14:31:21;1.10;;;0.77;;
46090;SDS011;31826;53.572;10.170;2023-08-21T14:33:46;1.70;;;0.90;;
46090;SDS011;31826;53.572;10.170;2023-08-21T14:36:12;1.60;;;1.00;;
46090;SDS011;31826;53.572;10.170;2023-08-21T14:38:38;2.50;;;0.90;;
46090;SDS011;31826;53.572;10.170;2023-08-21T14:41:04;2.42;;;1.05;;
46090;SDS011;31826;53.572;10.170;2023-08-21T14:43:29;4.30;;;1.57;;
46090;SDS011;31826;53.572;10.170;2023-08-21T14:45:57;1.42;;;0.80;;
46090;SDS011;31826;53.572;10.170;2023-08-21T14:48:23;4.95;;;0.90;;
46090;SDS011;31826;53.572;10.170;2023-08-21T14:50:49;3.10;;;0.98;;